Time;durP1;ratioP1;P1;durP2;ratioP2;P2;SDS_P1;SDS_P2;PMS_P1;PMS_P2;Temp;Humidity;BMP_temperature;BMP_pressure;BME280_temperature;BME280_humidity;BME280_pressure;Samples;Min_cycle;Max_cycle;Signal;HPM_P1;HPM_P2
2022/09/14 00:01:16;;;;;;;;;;;;;;;28.44;42.49;93615.84;4990554;28;7036;-59
2022/09/14 00:03:43;;;;;;;;;;;;;;;28.44;42.87;93608.28;4955195;28;7688;-60
2022/09/14 00:06:12;;;;;;;;;;;;;;;28.44;42.88;93611.03;4955724;28;7300;-60
2022/09/14 00:08:39;;;;;;;;;;;;;;;28.44;42.59;93593.72;4953151;28;7219;-60
2022/09/14 00:11:10;;;;;;;;;;;;;;;28.44;42.89;93599.97;4936240;28;7242;-59
2022/09/14 00:13:41;;;;;;;;;;;;;;;28.41;42.58;93595.53;4953551;28;7017;-59
2022/09/14 00:16:22;;;;;;;;;;;;;;;28.41;42.76;93594.78;4948921;28;7175;-60
2022/09/14 00:18:55;;;;;;;;;;;;;;;28.39;42.69;93600.88;4953459;28;7906;-60
2022/09/14 00:21:33;;;;;;;;;;;;;;;28.38;42.78;93599.41;4941629;28;7269;-60
2022/09/14 00:24:12;;;;;;;;;;;;;;;28.40;42.89;93594.06;4938311;28;9442;-60
2022/09/14 00:27:01;;;;;;;;;;;;;;;28.40;43.17;93598.84;4958606;28;7036;-60
2022/09/14 00:29:29;;;;;;;;;;;;;;;28.38;42.73;93593.88;4937624;28;7077;-60
2022/09/14 00:32:04;;;;;;;;;;;;;;;28.38;42.61;93588.34;4956194;28;6944;-60
2022/09/14 00:34:41;;;;;;;;;;;;;;;28.38;42.61;93585.59;4936878;28;7087;-60
2022/09/14 00:37:16;;;;;;;;;;;;;;;28.38;42.45;93596.66;4951486;28;9292;-60
2022/09/14 00:39:45;;;;;;;;;;;;;;;28.38;43.39;93593.88;4951589;28;7282;-59
2022/09/14 00:42:15;;;;;;;;;;;;;;;28.38;43.17;93597.38;5003564;28;9336;-59
2022/09/14 00:44:46;;;;;;;;;;;;;;;28.39;42.95;93589.81;5005547;28;7232;-59
2022/09/14 00:47:16;;;;;;;;;;;;;;;28.36;42.93;93582.63;5007356;28;9288;-60
2022/09/14 00:49:43;;;;;;;;;;;;;;;28.36;42.56;93582.63;4988235;28;6992;-60
2022/09/14 00:52:12;;;;;;;;;;;;;;;28.34;42.68;93585.19;4987701;28;7425;-59
2022/09/14 00:54:56;;;;;;;;;;;;;;;28.30;42.70;93579.28;4987039;28;7415;-60
2022/09/14 00:57:24;;;;;;;;;;;;;;;28.33;42.74;93578.19;5000734;28;7405;-60
2022/09/14 00:59:55;;;;;;;;;;;;;;;28.33;42.89;93573.41;4987153;28;8363;-60
2022/09/14 01:02:26;;;;;;;;;;;;;;;28.35;43.09;93570.06;4995299;28;6865;-60
2022/09/14 01:04:55;;;;;;;;;;;;;;;28.35;42.63;93581.13;5004587;28;7143;-60
2022/09/14 01:07:51;;;;;;;;;;;;;;;28.33;42.93;93583.72;4977393;28;7402;-60
2022/09/14 01:10:39;;;;;;;;;;;;;;;28.33;42.37;93578.94;4986096;28;9717;-60
2022/09/14 01:13:05;;;;;;;;;;;;;;;28.33;42.98;93578.94;4992891;28;8916;-60
2022/09/14 01:16:04;;;;;;;;;;;;;;;28.33;42.82;93575.41;5006446;28;7403;-60
2022/09/14 01:18:45;;;;;;;;;;;;;;;28.33;42.67;93578.19;4959445;28;7242;-60
2022/09/14 01:21:41;;;;;;;;;;;;;;;28.35;43.02;93575.59;4950576;28;9600;-60
2022/09/14 01:24:33;;;;;;;;;;;;;;;28.33;42.40;93580.94;4961315;28;7644;-60
2022/09/14 01:27:24;;;;;;;;;;;;;;;28.33;42.95;93578.19;4942554;28;7322;-60
2022/09/14 01:30:18;;;;;;;;;;;;;;;28.30;42.72;93582.78;4949290;28;8415;-61
2022/09/14 01:33:02;;;;;;;;;;;;;;;28.31;42.95;93595.34;4945290;28;9408;-60
2022/09/14 01:35:53;;;;;;;;;;;;;;;28.31;42.61;93586.28;4946048;28;8732;-61
2022/09/14 01:38:46;;;;;;;;;;;;;;;28.30;42.90;93590.34;4929803;28;7019;-60
2022/09/14 01:41:44;;;;;;;;;;;;;;;28.31;42.82;93586.28;4945588;28;8666;-61
2022/09/14 01:44:30;;;;;;;;;;;;;;;28.30;42.89;93584.81;4898636;29;7290;-60
2022/09/14 01:47:19;;;;;;;;;;;;;;;28.29;42.98;93588.88;4888512;29;7446;-60
2022/09/14 01:50:27;;;;;;;;;;;;;;;28.28;42.98;93585.38;4897082;29;7550;-60
2022/09/14 01:53:05;;;;;;;;;;;;;;;28.29;42.66;93589.63;4824933;29;7233;-60
2022/09/14 01:55:54;;;;;;;;;;;;;;;28.30;42.77;93587.56;4848647;29;7327;-61
2022/09/14 01:58:52;;;;;;;;;;;;;;;28.28;43.01;93588.13;4856586;29;7359;-61
2022/09/14 02:01:56;;;;;;;;;;;;;;;28.29;42.98;93591.63;4848375;29;7005;-60
2022/09/14 02:04:57;;;;;;;;;;;;;;;28.27;42.76;93589.41;4842217;29;9633;-60
2022/09/14 02:07:26;;;;;;;;;;;;;;;28.25;43.33;93588.50;4857100;29;7316;-60
2022/09/14 02:10:17;;;;;;;;;;;;;;;28.25;43.03;93586.44;4855799;29;7385;-60
2022/09/14 02:13:01;;;;;;;;;;;;;;;28.27;42.78;93580.38;4854408;29;7114;-60
2022/09/14 02:15:42;;;;;;;;;;;;;;;28.27;43.24;93583.16;4856058;29;7056;-60
2022/09/14 02:18:28;;;;;;;;;;;;;;;28.27;43.00;93572.81;4854463;29;7114;-60
2022/09/14 02:21:38;;;;;;;;;;;;;;;28.28;42.92;93571.53;4879210;29;7401;-60
2022/09/14 02:24:14;;;;;;;;;;;;;;;28.28;42.98;93570.78;4888444;29;8811;-60
2022/09/14 02:26:56;;;;;;;;;;;;;;;28.29;42.76;93572.28;4890170;29;7243;-60
2022/09/14 02:29:52;;;;;;;;;;;;;;;28.28;42.66;93581.84;4886288;29;7299;-60
2022/09/14 02:32:27;;;;;;;;;;;;;;;28.28;43.06;93579.09;4856523;29;7676;-60
2022/09/14 02:35:12;;;;;;;;;;;;;;;28.26;42.79;93585.16;4858031;29;7149;-60
2022/09/14 02:37:58;;;;;;;;;;;;;;;28.26;42.84;93584.44;4868841;29;10707;-60
2022/09/14 02:40:36;;;;;;;;;;;;;;;28.25;42.37;93586.44;4894069;29;7255;-60
2022/09/14 02:43:33;;;;;;;;;;;;;;;28.23;42.57;93569.66;4926965;29;7473;-60
2022/09/14 02:46:19;;;;;;;;;;;;;;;28.24;43.00;93575.94;4899402;29;7309;-60
2022/09/14 02:49:23;;;;;;;;;;;;;;;28.25;42.78;93596.78;4921130;29;7267;-60
2022/09/14 02:52:51;;;;;;;;;;;;;;;28.24;43.01;93592.53;4930668;29;7249;-60
2022/09/14 02:55:28;;;;;;;;;;;;;;;28.24;42.72;93595.28;4872010;29;7387;-60
2022/09/14 02:58:14;;;;;;;;;;;;;;;28.24;42.79;93598.81;4875480;29;7310;-60
2022/09/14 03:00:44;;;;;;;;;;;;;;;28.24;42.99;93581.47;4858604;29;8345;-60
2022/09/14 03:03:20;;;;;;;;;;;;;;;28.23;43.01;93574.47;4873387;29;7423;-60
2022/09/14 03:06:03;;;;;;;;;;;;;;;28.22;43.14;93565.44;4873041;29;7964;-60
2022/09/14 03:08:48;;;;;;;;;;;;;;;28.22;42.98;93556.41;4884120;29;8295;-60
2022/09/14 03:11:29;;;;;;;;;;;;;;;28.23;42.77;93560.66;4896256;29;9699;-60
2022/09/14 03:13:58;;;;;;;;;;;;;;;28.23;42.45;93557.88;4910968;29;9477;-60
2022/09/14 03:16:24;;;;;;;;;;;;;;;28.22;42.65;93548.09;4910279;29;7242;-60
2022/09/14 03:19:05;;;;;;;;;;;;;;;28.21;42.74;93528.00;4896843;29;8559;-60
2022/09/14 03:21:40;;;;;;;;;;;;;;;28.20;42.76;93537.59;4912522;29;7005;-60
2022/09/14 03:24:06;;;;;;;;;;;;;;;28.20;43.12;93521.00;4911815;29;8415;-60
2022/09/14 03:26:45;;;;;;;;;;;;;;;28.20;42.72;93525.78;4910846;29;7816;-60
2022/09/14 03:29:15;;;;;;;;;;;;;;;28.16;43.14;93520.63;4912774;29;7004;-60
2022/09/14 03:31:59;;;;;;;;;;;;;;;28.17;43.01;93518.56;4954934;28;8669;-60
2022/09/14 03:35:13;;;;;;;;;;;;;;;28.21;43.06;93532.78;4989043;28;7183;-60
2022/09/14 03:37:54;;;;;;;;;;;;;;;28.20;42.37;93537.59;4970760;28;7305;-59
2022/09/14 03:40:21;;;;;;;;;;;;;;;28.22;43.02;93540.53;4984419;28;7137;-60
2022/09/14 03:42:50;;;;;;;;;;;;;;;28.21;42.51;93549.38;4969726;28;7116;-61
2022/09/14 03:45:19;;;;;;;;;;;;;;;28.20;42.76;93543.13;4971977;28;7001;-60
2022/09/14 03:47:46;;;;;;;;;;;;;;;28.22;42.56;93556.41;4978051;28;7131;-60
2022/09/14 03:50:18;;;;;;;;;;;;;;;28.22;42.87;93546.06;4959577;28;7173;-60
2022/09/14 03:53:14;;;;;;;;;;;;;;;28.23;42.62;93558.59;4951189;28;7009;-60
2022/09/14 03:56:31;;;;;;;;;;;;;;;28.24;42.74;93556.59;4929688;29;7218;-60
2022/09/14 03:58:56;;;;;;;;;;;;;;;28.22;42.65;93539.81;4895721;29;7195;-60
2022/09/14 04:01:33;;;;;;;;;;;;;;;28.23;42.94;93547.53;4880269;29;7593;-60
2022/09/14 04:04:14;;;;;;;;;;;;;;;28.23;42.59;93536.47;4896613;29;7132;-60
2022/09/14 04:06:49;;;;;;;;;;;;;;;28.23;43.18;93539.25;4879997;29;7515;-60
2022/09/14 04:09:16;;;;;;;;;;;;;;;28.23;42.84;93535.75;4891455;29;7058;-60
2022/09/14 04:11:42;;;;;;;;;;;;;;;28.24;42.71;93540.75;4879356;29;9053;-60
2022/09/14 04:14:11;;;;;;;;;;;;;;;28.22;42.44;93535.00;4892089;29;7012;-60
2022/09/14 04:16:38;;;;;;;;;;;;;;;28.23;43.11;93535.75;4894510;29;7391;-60
2022/09/14 04:19:04;;;;;;;;;;;;;;;28.23;42.35;93536.47;4907573;29;7450;-60
2022/09/14 04:21:41;;;;;;;;;;;;;;;28.22;42.75;93550.88;4883182;29;7432;-60
2022/09/14 04:24:12;;;;;;;;;;;;;;;28.21;43.20;93550.13;4877011;29;7451;-60
2022/09/14 04:26:38;;;;;;;;;;;;;;;28.22;42.78;93531.50;4891708;29;8391;-61
2022/09/14 04:29:13;;;;;;;;;;;;;;;28.22;42.36;93523.22;4894291;29;7188;-60
2022/09/14 04:31:51;;;;;;;;;;;;;;;28.22;42.74;93537.03;4888357;29;8708;-60
2022/09/14 04:34:19;;;;;;;;;;;;;;;28.21;42.37;93546.59;4956484;28;7864;-60
2022/09/14 04:36:47;;;;;;;;;;;;;;;28.22;42.54;93539.81;4992921;28;7158;-60
2022/09/14 04:39:25;;;;;;;;;;;;;;;28.21;42.66;93527.25;4997011;28;7184;-60
2022/09/14 04:41:52;;;;;;;;;;;;;;;28.20;42.82;93532.06;4990482;28;7307;-60
2022/09/14 04:44:19;;;;;;;;;;;;;;;28.17;42.65;93537.94;4990700;28;8727;-60
2022/09/14 04:46:57;;;;;;;;;;;;;;;28.17;42.29;93540.69;4987563;28;7230;-60
2022/09/14 04:49:30;;;;;;;;;;;;;;;28.16;42.96;93542.00;4990362;28;7123;-60
2022/09/14 04:51:56;;;;;;;;;;;;;;;28.16;42.90;93536.47;4991029;28;8430;-60
2022/09/14 04:54:26;;;;;;;;;;;;;;;28.11;42.73;93521.53;4985802;28;9506;-60
2022/09/14 04:57:04;;;;;;;;;;;;;;;28.13;42.91;93516.19;5003930;28;9491;-60
2022/09/14 04:59:36;;;;;;;;;;;;;;;28.10;43.06;93530.38;4992309;28;6865;-60
2022/09/14 05:02:03;;;;;;;;;;;;;;;28.07;43.10;93528.69;4996716;28;6956;-60
2022/09/14 05:04:31;;;;;;;;;;;;;;;28.07;42.98;93537.00;4989864;28;7553;-60
2022/09/14 05:07:00;;;;;;;;;;;;;;;28.03;42.93;93537.34;4984948;28;7040;-60
2022/09/14 05:09:32;;;;;;;;;;;;;;;28.05;42.73;93526.47;4992198;28;9032;-60
2022/09/14 05:12:03;;;;;;;;;;;;;;;28.08;43.08;93535.69;4986950;28;7182;-60
2022/09/14 05:14:29;;;;;;;;;;;;;;;28.09;42.97;93535.16;4991187;28;7176;-60
2022/09/14 05:17:00;;;;;;;;;;;;;;;28.14;42.40;93539.03;5010499;28;7182;-59
2022/09/14 05:19:26;;;;;;;;;;;;;;;28.16;42.61;93525.41;4999293;28;6991;-60
2022/09/14 05:21:54;;;;;;;;;;;;;;;28.17;42.82;93533.16;5011571;28;7280;-60
2022/09/14 05:24:32;;;;;;;;;;;;;;;28.15;42.81;93546.78;4998098;28;7083;-60
2022/09/14 05:27:00;;;;;;;;;;;;;;;28.16;42.56;93547.53;4984091;28;7025;-60
2022/09/14 05:29:40;;;;;;;;;;;;;;;28.16;42.79;93547.53;4980251;28;9421;-59
2022/09/14 05:32:12;;;;;;;;;;;;;;;28.11;43.23;93560.22;4996196;28;9727;-60
2022/09/14 05:34:47;;;;;;;;;;;;;;;28.10;43.20;93538.66;5010739;28;7255;-60
2022/09/14 05:37:38;;;;;;;;;;;;;;;28.09;42.90;93531.66;4993804;28;7165;-60
2022/09/14 05:40:21;;;;;;;;;;;;;;;28.07;42.98;93546.03;4988245;28;7208;-60
2022/09/14 05:42:56;;;;;;;;;;;;;;;28.06;43.00;93538.25;4995178;28;7188;-60
2022/09/14 05:45:24;;;;;;;;;;;;;;;28.04;42.78;93541.59;5008023;28;7083;-60
2022/09/14 05:47:54;;;;;;;;;;;;;;;28.02;43.30;93544.16;5007914;28;7358;-60
2022/09/14 05:50:28;;;;;;;;;;;;;;;28.02;43.03;93537.88;4990255;28;7191;-60
2022/09/14 05:52:54;;;;;;;;;;;;;;;28.05;42.88;93545.09;4995581;28;9424;-60
2022/09/14 05:55:27;;;;;;;;;;;;;;;28.04;43.30;93538.06;5009797;28;7254;-60
2022/09/14 05:57:55;;;;;;;;;;;;;;;28.07;42.95;93545.28;4983706;28;9195;-60
2022/09/14 06:00:21;;;;;;;;;;;;;;;28.09;42.94;93531.66;5007085;28;7589;-60
2022/09/14 06:02:53;;;;;;;;;;;;;;;28.08;43.10;93530.16;5008049;28;7449;-60
2022/09/14 06:05:21;;;;;;;;;;;;;;;28.11;42.73;93538.13;5002338;28;7416;-60
2022/09/14 06:08:06;;;;;;;;;;;;;;;28.11;43.13;93534.59;5005006;28;7578;-60
2022/09/14 06:10:39;;;;;;;;;;;;;;;28.12;43.30;93536.81;5008270;28;7558;-60
2022/09/14 06:13:05;;;;;;;;;;;;;;;28.10;43.06;93533.84;4984654;28;7469;-60
2022/09/14 06:15:33;;;;;;;;;;;;;;;28.08;42.95;93521.88;4989946;28;9201;-60
2022/09/14 06:18:07;;;;;;;;;;;;;;;28.05;42.99;93520.97;5006591;28;7976;-60
2022/09/14 06:20:48;;;;;;;;;;;;;;;28.06;43.31;93513.38;4989526;28;7619;-60
2022/09/14 06:23:31;;;;;;;;;;;;;;;28.04;43.10;93513.19;5016257;28;7296;-60
2022/09/14 06:26:00;;;;;;;;;;;;;;;28.04;43.59;93513.19;4984478;28;9533;-60
2022/09/14 06:28:32;;;;;;;;;;;;;;;28.01;43.13;93525.38;5008645;28;7304;-60
2022/09/14 06:31:03;;;;;;;;;;;;;;;28.01;43.45;93536.41;4989942;28;7030;-60
2022/09/14 06:34:03;;;;;;;;;;;;;;;28.03;43.23;93537.34;5012368;28;7302;-60
2022/09/14 06:37:01;;;;;;;;;;;;;;;28.04;43.40;93540.84;4999983;28;9064;-60
2022/09/14 06:39:28;;;;;;;;;;;;;;;28.04;43.21;93547.13;4993957;28;9438;-60
2022/09/14 06:41:58;;;;;;;;;;;;;;;28.03;43.44;93551.19;5002060;28;7237;-60
2022/09/14 06:44:50;;;;;;;;;;;;;;;28.06;43.42;93552.09;5008798;28;8413;-60
2022/09/14 06:47:16;;;;;;;;;;;;;;;28.05;43.29;93554.13;4987342;28;7296;-60
2022/09/14 06:50:15;;;;;;;;;;;;;;;28.05;43.63;93551.38;5004854;28;7339;-60
2022/09/14 06:52:41;;;;;;;;;;;;;;;28.04;43.27;93560.94;4950573;28;7233;-60
2022/09/14 06:55:16;;;;;;;;;;;;;;;28.03;43.83;93555.97;4939777;28;7365;-60
2022/09/14 06:57:54;;;;;;;;;;;;;;;28.04;43.33;93558.16;4950925;29;7214;-60
2022/09/14 07:00:20;;;;;;;;;;;;;;;28.04;43.35;93560.19;4951650;28;7357;-61
2022/09/14 07:02:46;;;;;;;;;;;;;;;28.04;43.50;93568.47;4934994;29;7178;-60
2022/09/14 07:05:21;;;;;;;;;;;;;;;28.04;43.48;93574.75;4948230;28;9196;-60
2022/09/14 07:07:52;;;;;;;;;;;;;;;28.06;43.23;93576.97;4935104;29;7076;-60
2022/09/14 07:10:28;;;;;;;;;;;;;;;28.04;43.40;93590.59;4941559;29;7033;-60
2022/09/14 07:12:54;;;;;;;;;;;;;;;28.05;43.17;93581.03;4953313;28;7017;-60
2022/09/14 07:15:21;;;;;;;;;;;;;;;28.05;42.97;93578.25;4939405;29;7548;-60
2022/09/14 07:17:49;;;;;;;;;;;;;;;28.05;43.39;93586.56;4948792;28;9517;-60
2022/09/14 07:20:17;;;;;;;;;;;;;;;28.05;43.51;93586.56;4952423;28;7105;-60
2022/09/14 07:22:57;;;;;;;;;;;;;;;28.08;43.74;93579.91;4947873;28;7227;-60
2022/09/14 07:25:22;;;;;;;;;;;;;;;28.09;43.44;93575.88;4948712;28;7361;-60
2022/09/14 07:27:50;;;;;;;;;;;;;;;28.08;43.29;93585.44;4951430;28;9386;-60
2022/09/14 07:30:18;;;;;;;;;;;;;;;28.07;43.23;93590.25;5009386;28;7307;-60
2022/09/14 07:32:46;;;;;;;;;;;;;;;28.07;43.07;93578.47;4995588;28;7194;-60
2022/09/14 07:35:22;;;;;;;;;;;;;;;28.07;43.57;93595.03;4992523;28;7068;-60
2022/09/14 07:37:48;;;;;;;;;;;;;;;28.07;43.51;93595.03;5010075;28;7247;-60
2022/09/14 07:40:17;;;;;;;;;;;;;;;28.09;43.24;93589.72;4992164;28;6978;-60
2022/09/14 07:42:52;;;;;;;;;;;;;;;28.09;43.37;93601.50;4989721;28;7269;-60
2022/09/14 07:45:28;;;;;;;;;;;;;;;28.11;43.23;93604.47;4992932;28;7138;-60
2022/09/14 07:47:55;;;;;;;;;;;;;;;28.13;43.15;93614.97;5011380;28;8139;-60
2022/09/14 07:50:21;;;;;;;;;;;;;;;28.16;43.29;93611.13;4997733;28;7588;-61
2022/09/14 07:53:17;;;;;;;;;;;;;;;28.17;42.97;93620.88;5011698;28;6930;-60
2022/09/14 07:55:53;;;;;;;;;;;;;;;28.15;43.23;93617.94;4953777;28;7265;-60
2022/09/14 07:58:31;;;;;;;;;;;;;;;28.15;43.00;93629.00;4938563;28;9323;-60
2022/09/14 08:01:01;;;;;;;;;;;;;;;28.14;43.09;93633.06;4956438;28;6973;-60
2022/09/14 08:03:39;;;;;;;;;;;;;;;28.15;42.93;93629.00;4950712;28;7184;-60
2022/09/14 08:06:12;;;;;;;;;;;;;;;28.17;43.37;93613.34;4947823;28;7263;-60
2022/09/14 08:08:43;;;;;;;;;;;;;;;28.17;42.95;93624.41;4932362;28;7691;-60
2022/09/14 08:11:14;;;;;;;;;;;;;;;28.17;43.34;93632.69;4946987;28;7588;-60
2022/09/14 08:13:45;;;;;;;;;;;;;;;28.15;42.82;93621.44;4947043;28;9116;-60
2022/09/14 08:16:13;;;;;;;;;;;;;;;28.16;43.20;93619.41;4946469;28;9030;-60
2022/09/14 08:18:40;;;;;;;;;;;;;;;28.16;43.23;93611.88;4949359;28;9764;-60
2022/09/14 08:21:09;;;;;;;;;;;;;;;28.16;42.83;93633.25;4953709;28;7301;-60
2022/09/14 08:23:42;;;;;;;;;;;;;;;28.16;43.60;93647.06;4954223;28;7139;-60
2022/09/14 08:26:13;;;;;;;;;;;;;;;28.15;43.29;93651.09;4952805;28;8721;-60
2022/09/14 08:28:40;;;;;;;;;;;;;;;28.14;43.29;93655.88;4954331;28;7303;-61
2022/09/14 08:31:16;;;;;;;;;;;;;;;28.14;43.87;93657.94;4949889;28;7430;-60
2022/09/14 08:33:50;;;;;;;;;;;;;;;28.15;43.28;93657.38;4988020;28;7505;-60
2022/09/14 08:36:39;;;;;;;;;;;;;;;28.15;43.46;93662.16;4986796;28;9702;-60
2022/09/14 08:39:09;;;;;;;;;;;;;;;28.15;43.21;93656.63;4997396;28;7194;-60
2022/09/14 08:41:56;;;;;;;;;;;;;;;28.12;43.50;93644.63;4990891;28;9137;-60
2022/09/14 08:44:24;;;;;;;;;;;;;;;28.13;43.38;93653.69;5011540;28;7100;-60
2022/09/14 08:47:40;;;;;;;;;;;;;;;28.13;43.39;93648.91;4995671;28;6998;-60
2022/09/14 08:50:09;;;;;;;;;;;;;;;28.14;43.30;93638.59;4952480;28;7638;-60
2022/09/14 08:53:01;;;;;;;;;;;;;;;28.16;43.52;93644.31;4953803;28;7066;-60
2022/09/14 08:55:33;;;;;;;;;;;;;;;28.15;43.31;93637.28;4948869;28;7553;-60
2022/09/14 08:58:19;;;;;;;;;;;;;;;28.15;43.64;93640.78;4951308;28;7173;-60
2022/09/14 09:01:27;;;;;;;;;;;;;;;28.15;43.45;93626.22;4949248;28;7261;-60
2022/09/14 09:04:19;;;;;;;;;;;;;;;28.13;43.21;93631.56;4952678;28;7182;-60
2022/09/14 09:07:04;;;;;;;;;;;;;;;28.14;43.87;93622.00;4948347;28;7104;-60
2022/09/14 09:09:43;;;;;;;;;;;;;;;28.13;43.24;93628.78;4955659;28;6937;-60
2022/09/14 09:12:27;;;;;;;;;;;;;;;28.12;43.41;93613.50;4941264;28;7355;-60
2022/09/14 09:15:03;;;;;;;;;;;;;;;28.12;43.54;93603.16;4950603;28;7224;-60
2022/09/14 09:17:38;;;;;;;;;;;;;;;28.13;43.51;93592.84;4937404;28;7106;-60
2022/09/14 09:20:42;;;;;;;;;;;;;;;28.12;43.69;93585.84;4935549;28;7225;-60
2022/09/14 09:23:21;;;;;;;;;;;;;;;28.12;43.69;93585.84;4893710;29;7382;-60
2022/09/14 09:26:15;;;;;;;;;;;;;;;28.10;43.59;93594.69;4902637;28;9369;-60
2022/09/14 09:28:55;;;;;;;;;;;;;;;28.10;43.62;93605.03;4962986;28;7548;-60
2022/09/14 09:31:46;;;;;;;;;;;;;;;28.10;43.74;93605.03;4962138;28;7239;-60
2022/09/14 09:34:27;;;;;;;;;;;;;;;28.09;43.96;93592.47;4958718;28;9546;-60
2022/09/14 09:37:20;;;;;;;;;;;;;;;28.10;43.79;93591.19;4933228;28;7831;-60
2022/09/14 09:39:55;;;;;;;;;;;;;;;28.08;44.04;93588.97;4943245;28;7157;-60
2022/09/14 09:42:24;;;;;;;;;;;;;;;28.05;43.90;93581.03;4962984;28;7725;-60
2022/09/14 09:45:10;;;;;;;;;;;;;;;28.04;44.12;93574.00;4941925;28;7393;-60
2022/09/14 09:47:48;;;;;;;;;;;;;;;28.03;44.39;93578.81;4936192;28;7295;-60
2022/09/14 09:50:56;;;;;;;;;;;;;;;28.05;44.12;93578.25;4961192;28;7223;-60
2022/09/14 09:53:49;;;;;;;;;;;;;;;28.03;43.76;93576.06;4954531;28;7566;-60
2022/09/14 09:56:37;;;;;;;;;;;;;;;28.03;44.68;93567.00;4961992;28;10889;-60
2022/09/14 09:59:34;;;;;;;;;;;;;;;28.03;44.14;93553.19;4962555;28;7244;-60
2022/09/14 10:02:22;;;;;;;;;;;;;;;28.02;44.07;93544.16;5008006;28;7247;-60
2022/09/14 10:04:59;;;;;;;;;;;;;;;28.04;43.87;93546.38;4986899;28;7118;-60
2022/09/14 10:07:33;;;;;;;;;;;;;;;28.03;43.98;93544.91;4988319;28;7240;-60
2022/09/14 10:10:09;;;;;;;;;;;;;;;28.03;44.04;93536.59;4987326;28;9724;-60
2022/09/14 10:12:38;;;;;;;;;;;;;;;28.04;43.90;93538.81;4987910;28;7009;-60
2022/09/14 10:15:17;;;;;;;;;;;;;;;28.04;44.23;93533.28;5010214;28;7000;-60
2022/09/14 10:18:12;;;;;;;;;;;;;;;28.06;44.20;93527.19;5012772;28;9419;-61
2022/09/14 10:20:43;;;;;;;;;;;;;;;28.07;44.29;93521.16;4985124;28;6871;-60
2022/09/14 10:23:19;;;;;;;;;;;;;;;28.05;44.17;93511.91;5009016;28;7247;-60
2022/09/14 10:25:51;;;;;;;;;;;;;;;28.06;44.56;93507.84;5006350;28;7002;-60
2022/09/14 10:29:14;;;;;;;;;;;;;;;28.07;44.38;93492.75;4994121;28;7023;-60
2022/09/14 10:32:03;;;;;;;;;;;;;;;28.08;44.53;93491.44;4962614;28;8244;-60
2022/09/14 10:34:58;;;;;;;;;;;;;;;28.07;44.43;93493.50;4962485;28;7242;-60
2022/09/14 10:38:09;;;;;;;;;;;;;;;28.09;44.52;93490.19;4913434;29;7423;-60
2022/09/14 10:40:59;;;;;;;;;;;;;;;28.10;44.67;93499.97;4875178;29;7010;-60
2022/09/14 10:44:04;;;;;;;;;;;;;;;28.12;44.94;93503.63;4870878;29;9140;-60
2022/09/14 10:47:20;;;;;;;;;;;;;;;28.12;44.93;93503.63;4871502;29;7221;-60
2022/09/14 10:50:10;;;;;;;;;;;;;;;28.10;44.89;93511.03;4871015;29;7196;-60
2022/09/14 10:53:01;;;;;;;;;;;;;;;28.07;44.74;93520.41;4869257;29;7479;-60
2022/09/14 10:55:47;;;;;;;;;;;;;;;28.06;44.68;93511.38;4856222;29;7779;-60
2022/09/14 10:58:38;;;;;;;;;;;;;;;28.06;45.00;93505.09;4870651;29;7062;-60
2022/09/14 11:01:12;;;;;;;;;;;;;;;28.05;44.76;93493.31;4866547;29;7282;-60
2022/09/14 11:03:58;;;;;;;;;;;;;;;28.03;45.25;93497.91;4857382;29;9861;-60
2022/09/14 11:06:39;;;;;;;;;;;;;;;28.01;45.54;93500.47;4876531;29;7494;-61
2022/09/14 11:09:29;;;;;;;;;;;;;;;28.03;45.62;93484.84;4872896;29;7241;-60
2022/09/14 11:12:19;;;;;;;;;;;;;;;28.07;45.43;93476.91;4871185;29;7468;-61
2022/09/14 11:14:54;;;;;;;;;;;;;;;28.07;44.94;93468.63;4918971;29;9237;-60
2022/09/14 11:17:35;;;;;;;;;;;;;;;28.08;45.14;93458.28;4990443;28;7746;-60
2022/09/14 11:20:10;;;;;;;;;;;;;;;28.07;45.15;93465.84;5011824;28;6994;-60
2022/09/14 11:23:23;;;;;;;;;;;;;;;28.05;45.71;93476.72;4995747;28;7607;-60
2022/09/14 11:25:54;;;;;;;;;;;;;;;28.03;45.22;93484.84;4990572;28;7210;-60
2022/09/14 11:29:11;;;;;;;;;;;;;;;28.04;45.33;93496.59;4993409;28;7492;-60
2022/09/14 11:32:21;;;;;;;;;;;;;;;28.03;45.08;93495.88;4969549;28;7345;-60
2022/09/14 11:35:17;;;;;;;;;;;;;;;28.05;44.93;93481.50;4931404;29;7494;-60
2022/09/14 11:38:28;;;;;;;;;;;;;;;28.08;45.07;93480.41;4929464;29;7192;-60
2022/09/14 11:41:22;;;;;;;;;;;;;;;28.08;44.62;93491.44;4931252;29;7271;-60
2022/09/14 11:44:13;;;;;;;;;;;;;;;28.08;44.89;93496.97;4914798;29;7465;-60
2022/09/14 11:46:48;;;;;;;;;;;;;;;28.08;44.65;93492.19;4913857;29;6994;-60
2022/09/14 11:49:33;;;;;;;;;;;;;;;28.09;44.79;93492.94;4925220;29;7286;-60
2022/09/14 11:52:19;;;;;;;;;;;;;;;28.12;44.57;93491.84;4913313;29;7350;-60
2022/09/14 11:54:50;;;;;;;;;;;;;;;28.11;44.41;93507.69;4928779;29;9931;-60
2022/09/14 11:57:22;;;;;;;;;;;;;;;28.08;44.50;93503.25;4910775;29;7324;-60
2022/09/14 11:59:54;;;;;;;;;;;;;;;28.11;44.52;93504.94;4907820;29;7179;-60
2022/09/14 12:02:37;;;;;;;;;;;;;;;28.12;44.15;93506.41;4907955;29;9942;-60
2022/09/14 12:05:03;;;;;;;;;;;;;;;28.14;44.46;93511.41;4924394;29;7535;-60
2022/09/14 12:07:42;;;;;;;;;;;;;;;28.14;44.50;93512.13;4928823;29;10095;-60
2022/09/14 12:10:14;;;;;;;;;;;;;;;28.15;44.40;93507.34;4926952;28;7526;-60
2022/09/14 12:13:08;;;;;;;;;;;;;;;28.17;44.45;93510.28;4951588;28;7268;-60
2022/09/14 12:15:36;;;;;;;;;;;;;;;28.16;44.06;93501.28;4953163;28;9349;-60
2022/09/14 12:18:08;;;;;;;;;;;;;;;28.16;43.83;93508.81;4978016;28;7936;-60
2022/09/14 12:20:36;;;;;;;;;;;;;;;28.17;44.10;93535.16;4994665;28;7039;-60
2022/09/14 12:23:21;;;;;;;;;;;;;;;28.18;44.07;93533.91;4995456;28;9874;-60
2022/09/14 12:26:09;;;;;;;;;;;;;;;28.17;44.32;93541.44;5006414;28;6957;-60
2022/09/14 12:29:04;;;;;;;;;;;;;;;28.15;44.20;93541.25;5006653;28;9379;-60
2022/09/14 12:31:58;;;;;;;;;;;;;;;28.16;44.70;93544.75;4937639;28;7335;-60
2022/09/14 12:34:29;;;;;;;;;;;;;;;28.16;44.17;93558.59;4936892;28;8553;-61
2022/09/14 12:37:27;;;;;;;;;;;;;;;28.17;44.32;93546.97;4970739;28;7393;-60
2022/09/14 12:40:30;;;;;;;;;;;;;;;28.17;44.11;93560.81;4970584;28;7488;-61
2022/09/14 12:43:36;;;;;;;;;;;;;;;28.20;44.08;93545.88;4972472;28;9056;-60
2022/09/14 12:46:22;;;;;;;;;;;;;;;28.18;44.01;93534.63;4955312;28;9401;-60
2022/09/14 12:49:28;;;;;;;;;;;;;;;28.18;44.12;93531.13;4970066;28;7271;-60
2022/09/14 12:52:19;;;;;;;;;;;;;;;28.17;44.30;93526.88;4928862;29;7143;-60
2022/09/14 12:55:20;;;;;;;;;;;;;;;28.14;44.57;93525.22;4929395;29;7201;-60
2022/09/14 12:58:00;;;;;;;;;;;;;;;28.15;44.21;93529.44;4926498;29;7269;-60
2022/09/14 13:00:31;;;;;;;;;;;;;;;28.18;43.67;93531.13;4912373;29;7004;-60
2022/09/14 13:03:31;;;;;;;;;;;;;;;28.16;44.36;93530.94;4913776;29;7016;-60
2022/09/14 13:06:12;;;;;;;;;;;;;;;28.13;44.46;93532.03;4928499;29;7254;-60
2022/09/14 13:08:55;;;;;;;;;;;;;;;28.14;44.50;93550.81;4944579;28;7381;-61
2022/09/14 13:11:31;;;;;;;;;;;;;;;28.18;44.96;93536.66;4951692;28;9200;-60
2022/09/14 13:14:01;;;;;;;;;;;;;;;28.19;44.11;93536.09;4950033;28;7219;-61
2022/09/14 13:16:48;;;;;;;;;;;;;;;28.21;44.71;93538.31;4948892;28;6884;-61
2022/09/14 13:19:20;;;;;;;;;;;;;;;28.21;44.57;93543.84;4970451;28;7218;-61
2022/09/14 13:21:49;;;;;;;;;;;;;;;28.21;44.84;93544.59;4969464;28;9438;-61
2022/09/14 13:24:38;;;;;;;;;;;;;;;28.21;44.61;93546.59;4956470;28;9480;-61
2022/09/14 13:27:20;;;;;;;;;;;;;;;28.20;44.57;93548.66;4995715;28;7511;-61
2022/09/14 13:30:23;;;;;;;;;;;;;;;28.21;44.71;93539.06;4988022;28;6996;-61
2022/09/14 13:32:56;;;;;;;;;;;;;;;28.22;44.46;93542.56;4988401;28;9220;-61
2022/09/14 13:35:44;;;;;;;;;;;;;;;28.22;44.71;93537.03;4990825;28;7089;-61
2022/09/14 13:38:18;;;;;;;;;;;;;;;28.21;44.52;93546.59;5004132;28;7013;-61
2022/09/14 13:40:48;;;;;;;;;;;;;;;28.20;44.90;93536.84;4986281;28;7398;-61
2022/09/14 13:43:21;;;;;;;;;;;;;;;28.21;44.69;93532.78;4984744;28;7426;-61
2022/09/14 13:45:49;;;;;;;;;;;;;;;28.22;44.65;93528.75;5002097;28;9317;-61
2022/09/14 13:48:19;;;;;;;;;;;;;;;28.23;44.72;93513.63;4980834;28;7319;-61
2022/09/14 13:50:52;;;;;;;;;;;;;;;28.25;44.29;93517.31;4984939;28;6996;-61
2022/09/14 13:53:41;;;;;;;;;;;;;;;28.22;44.68;93512.91;5000773;28;7326;-61
2022/09/14 13:56:34;;;;;;;;;;;;;;;28.20;44.91;93509.94;4990163;28;6915;-61
2022/09/14 13:59:07;;;;;;;;;;;;;;;28.21;44.83;93516.94;4972681;28;7465;-61
2022/09/14 14:01:49;;;;;;;;;;;;;;;28.21;44.96;93516.19;5003796;28;7200;-61
2022/09/14 14:04:47;;;;;;;;;;;;;;;28.23;45.03;93527.47;5006967;28;9810;-61